createdAt,value
2019-04-28T00:02:34.634Z,0
2019-04-28T00:05:42.829Z,0
2019-04-28T00:11:55.202Z,0
2019-04-28T00:15:03.677Z,0
2019-04-28T00:18:11.883Z,0
2019-04-28T00:21:18.182Z,0
2019-04-28T00:24:26.082Z,0
2019-04-28T00:27:34.044Z,0
2019-04-28T00:30:42.262Z,0
2019-04-28T00:33:48.448Z,0
2019-04-28T00:36:54.642Z,0
2019-04-28T00:40:02.854Z,0
2019-04-28T00:43:10.685Z,0
2019-04-28T00:46:17.133Z,0
2019-04-28T00:49:25.801Z,0
2019-04-28T00:55:41.620Z,0
2019-04-28T00:58:47.926Z,0
2019-04-28T01:01:54.393Z,0
2019-04-28T01:08:11.643Z,0
2019-04-28T01:11:17.835Z,0
2019-04-28T01:17:32.640Z,0
2019-04-28T01:20:40.884Z,0
2019-04-28T01:23:47.193Z,0
2019-04-28T01:26:53.851Z,0
2019-04-28T01:30:13.681Z,0
2019-04-28T01:33:21.723Z,0
2019-04-28T01:39:35.092Z,0
2019-04-28T01:42:43.110Z,0
2019-04-28T01:45:51.403Z,0
2019-04-28T01:52:07.044Z,0
2019-04-28T01:55:13.286Z,0
2019-04-28T02:01:30.137Z,0
2019-04-28T02:04:36.561Z,0
2019-04-28T02:07:43.938Z,0
2019-04-28T02:10:52.096Z,0
2019-04-28T02:14:00.326Z,0
2019-04-28T02:17:06.583Z,0
2019-04-28T02:20:13.457Z,0
2019-04-28T02:26:29.158Z,0
2019-04-28T02:29:35.843Z,0
2019-04-28T02:32:43.966Z,0
2019-04-28T02:35:52.993Z,0
2019-04-28T02:39:01.413Z,0
2019-04-28T02:42:07.720Z,0
2019-04-28T02:48:24.004Z,0
2019-04-28T02:51:32.617Z,0
2019-04-28T02:54:41.647Z,0
2019-04-28T02:57:47.823Z,0
2019-04-28T03:01:30.622Z,0
2019-04-28T03:04:41.525Z,0
2019-04-28T03:07:47.699Z,0
2019-04-28T03:10:54.147Z,0.1
2019-04-28T03:17:12.943Z,0.2
2019-04-28T03:20:22.153Z,0.3
2019-04-28T03:23:31.610Z,0.4
2019-04-28T03:26:37.785Z,0.4
2019-04-28T03:29:43.969Z,0.7
2019-04-28T03:33:27.287Z,1.2
2019-04-28T03:37:00.143Z,3.2
2019-04-28T03:40:06.639Z,2.3
2019-04-28T03:49:32.501Z,4.9
2019-04-28T03:52:42.745Z,6.3
2019-04-28T03:55:51.814Z,8
2019-04-28T03:59:01.061Z,8.9
2019-04-28T04:02:07.294Z,14.6
2019-04-28T04:11:35.114Z,23.8
2019-04-28T04:14:44.148Z,14.2
2019-04-28T04:17:52.762Z,32.2
2019-04-28T04:21:01.394Z,33.7
2019-04-28T04:24:07.649Z,79.6
2019-04-28T04:33:32.064Z,143.3
2019-04-28T04:36:41.297Z,140.4
2019-04-28T04:39:47.891Z,134.6
2019-04-28T04:42:54.079Z,134.6
2019-04-28T04:46:02.666Z,156.2
2019-04-28T04:52:20.212Z,194.4
2019-04-28T04:55:26.479Z,171.4
2019-04-28T04:58:33.480Z,163.4
2019-04-28T05:01:42.436Z,154.8
2019-04-28T05:04:50.446Z,175
2019-04-28T05:07:56.676Z,152.6
2019-04-28T05:11:03.053Z,136.8
2019-04-28T05:14:14.186Z,122.4
2019-04-28T05:17:22.137Z,112.3
2019-04-28T05:20:30.055Z,119.5
2019-04-28T05:23:36.519Z,122.4
2019-04-28T05:26:53.330Z,123.8
2019-04-28T05:30:07.742Z,123.8
2019-04-28T05:33:16.189Z,121.7
2019-04-28T05:39:31.608Z,120.2
2019-04-28T05:42:39.385Z,120.2
2019-04-28T05:45:45.682Z,122.4
2019-04-28T05:48:54.097Z,124.6
2019-04-28T05:52:01.903Z,122.4
2019-04-28T05:58:14.195Z,78.5
2019-04-28T06:01:22.232Z,69.8
2019-04-28T06:04:30.198Z,32.8
2019-04-28T06:07:36.715Z,40.1
2019-04-28T06:13:52.524Z,86.4
2019-04-28T06:20:07.247Z,95
2019-04-28T06:23:13.476Z,87.8
2019-04-28T06:26:19.742Z,81
2019-04-28T06:29:25.908Z,68.8
2019-04-28T06:32:32.068Z,73.1
2019-04-28T06:35:38.345Z,87.8
2019-04-28T06:38:44.609Z,86.8
2019-04-28T06:41:50.759Z,86
2019-04-28T06:48:03.105Z,85
2019-04-28T06:54:15.534Z,82.4
2019-04-28T06:57:21.696Z,81
2019-04-28T07:00:27.968Z,79.6
2019-04-28T07:03:34.179Z,78.1
2019-04-28T07:06:40.398Z,76.3
2019-04-28T07:09:46.533Z,75.2
2019-04-28T07:12:52.721Z,73.4
2019-04-28T07:15:58.991Z,72.4
2019-04-28T07:22:11.422Z,69.1
2019-04-28T07:28:23.858Z,65.5
2019-04-28T07:31:30.123Z,65.5
2019-04-28T07:34:36.389Z,63.7
2019-04-28T07:37:42.656Z,63.7
2019-04-28T07:40:48.815Z,27.5
2019-04-28T07:43:55.089Z,47.5
2019-04-28T07:47:01.359Z,58.7
2019-04-28T07:50:07.518Z,54.7
2019-04-28T07:53:13.679Z,55.8
2019-04-28T07:56:19.947Z,46.1
2019-04-28T08:02:32.481Z,51.8
2019-04-28T08:05:38.634Z,50.4
2019-04-28T08:08:44.810Z,29.3
2019-04-28T08:11:50.978Z,25.7
2019-04-28T08:14:57.242Z,26.1
2019-04-28T08:18:03.409Z,27.2
2019-04-28T08:21:09.570Z,32.8
2019-04-28T08:24:15.734Z,31.5
2019-04-28T08:27:21.862Z,45.7
2019-04-28T08:30:28.063Z,50.4
2019-04-28T08:36:42.550Z,44.8
2019-04-28T08:42:57.771Z,38.3
2019-04-28T08:46:03.909Z,36
2019-04-28T08:49:10.075Z,33.7
2019-04-28T08:52:16.334Z,31.9
2019-04-28T08:55:22.503Z,30.6
2019-04-28T08:58:30.967Z,29.7
2019-04-28T09:01:37.201Z,28.8
2019-04-28T09:04:43.504Z,27.9
2019-04-28T09:10:58.864Z,27.2
2019-04-28T09:14:05.118Z,20.3
2019-04-28T09:17:11.247Z,27.4
2019-04-28T09:20:20.405Z,30.6
2019-04-28T09:23:26.598Z,23.8
2019-04-28T09:26:32.872Z,30.6
2019-04-28T09:29:39.126Z,25.4
2019-04-28T09:32:45.293Z,27.9
2019-04-28T09:35:51.410Z,25.6
2019-04-28T09:38:57.721Z,23.9
2019-04-28T09:45:10.201Z,27.2
2019-04-28T09:51:22.496Z,25.9
2019-04-28T09:54:28.750Z,27.2
2019-04-28T09:57:34.874Z,37.1
2019-04-28T10:00:41.187Z,36
2019-04-28T10:03:47.437Z,35.3
2019-04-28T10:06:53.565Z,37.4
2019-04-28T10:09:59.766Z,24.1
2019-04-28T10:13:05.954Z,35.6
2019-04-28T10:19:18.360Z,30.2
2019-04-28T10:25:30.824Z,31.9
2019-04-28T10:28:37.062Z,32.6
2019-04-28T10:31:43.195Z,28.1
2019-04-28T10:34:58.098Z,34
2019-04-28T10:41:10.525Z,21.6
2019-04-28T10:44:16.777Z,22
2019-04-28T10:47:23.061Z,24.5
2019-04-28T10:50:29.348Z,23
2019-04-28T10:53:35.481Z,22.9
2019-04-28T10:59:48.216Z,20.8
2019-04-28T11:02:54.348Z,19.1
2019-04-28T11:06:00.559Z,26.1
2019-04-28T11:09:06.686Z,24.8
2019-04-28T11:15:19.158Z,33.8
2019-04-28T11:18:25.426Z,25
2019-04-28T11:21:31.685Z,23.8
2019-04-28T11:24:37.816Z,31.9
2019-04-28T11:27:44.121Z,35.3
2019-04-28T11:33:56.584Z,18.2
2019-04-28T11:37:02.742Z,27
2019-04-28T11:40:08.985Z,28.4
2019-04-28T11:43:15.245Z,31
2019-04-28T11:49:27.685Z,30.6
2019-04-28T11:52:33.809Z,28.8
2019-04-28T11:55:40.017Z,29.7
2019-04-28T11:58:46.154Z,30.4
2019-04-28T12:01:52.346Z,24.1
2019-04-28T12:04:58.605Z,29.9
2019-04-28T12:08:04.876Z,31.1
2019-04-28T12:11:11.043Z,30.2
2019-04-28T12:14:17.209Z,28.1
2019-04-28T12:23:35.902Z,31
2019-04-28T12:26:42.251Z,32
2019-04-28T12:29:48.489Z,31
2019-04-28T12:32:54.623Z,23
2019-04-28T12:36:00.866Z,27.4
2019-04-28T12:39:07.137Z,22.9
2019-04-28T12:42:13.286Z,29.5
2019-04-28T12:45:19.481Z,30.1
2019-04-28T12:48:25.637Z,31.7
2019-04-28T12:57:44.461Z,28.4
2019-04-28T13:00:50.694Z,29.7
2019-04-28T13:03:56.838Z,24.8
2019-04-28T13:07:03.022Z,21
2019-04-28T13:10:09.192Z,20.9
2019-04-28T13:13:15.352Z,16.6
2019-04-28T13:16:21.616Z,15.9
2019-04-28T13:19:27.789Z,21.2
2019-04-28T13:22:33.947Z,17.8
2019-04-28T13:25:40.214Z,19.6
2019-04-28T13:31:52.747Z,17
2019-04-28T13:34:59.117Z,20.7
2019-04-28T13:38:05.403Z,27.7
2019-04-28T13:41:11.554Z,27.4
2019-04-28T13:44:17.724Z,23.9
2019-04-28T13:47:23.998Z,23.4
2019-04-28T13:50:30.235Z,12.4
2019-04-28T13:53:36.369Z,13.1
2019-04-28T13:56:45.530Z,13.4
2019-04-28T13:59:51.725Z,12.3
2019-04-28T14:06:04.333Z,20.6
2019-04-28T14:09:10.489Z,24.1
2019-04-28T14:15:22.869Z,21.3
2019-04-28T14:18:29.206Z,22.6
2019-04-28T14:21:35.696Z,20.1
2019-04-28T14:24:42.103Z,10.3
2019-04-28T14:27:48.324Z,21.7
2019-04-28T14:30:54.592Z,20
2019-04-28T14:34:00.901Z,16.1
2019-04-28T14:40:13.556Z,18.5
2019-04-28T14:43:19.881Z,16.6
2019-04-28T14:49:32.677Z,17.1
2019-04-28T14:52:38.794Z,16.7
2019-04-28T14:55:45.128Z,16.5
2019-04-28T14:58:51.409Z,16.2
2019-04-28T15:01:57.568Z,15.7
2019-04-28T15:05:03.960Z,15.4
2019-04-28T15:08:10.207Z,15
2019-04-28T15:14:23.153Z,14.1
2019-04-28T15:17:29.393Z,13.6
2019-04-28T15:20:35.887Z,13.1
2019-04-28T15:23:42.048Z,12.7
2019-04-28T15:26:48.209Z,12.2
2019-04-28T15:29:54.389Z,12
2019-04-28T15:33:00.538Z,11.7
2019-04-28T15:36:06.758Z,11.4
2019-04-28T15:39:12.893Z,11
2019-04-28T15:42:19.139Z,10.5
2019-04-28T15:48:31.502Z,10
2019-04-28T15:51:37.729Z,9.6
2019-04-28T15:54:44.002Z,9.3
2019-04-28T15:57:50.371Z,7.1
2019-04-28T16:00:56.510Z,6.9
2019-04-28T16:04:02.705Z,5.9
2019-04-28T16:10:15.138Z,6.3
2019-04-28T16:13:21.292Z,6
2019-04-28T16:16:27.749Z,5.7
2019-04-28T16:22:40.135Z,6.7
2019-04-28T16:25:46.358Z,6.7
2019-04-28T16:28:52.680Z,6.3
2019-04-28T16:31:58.893Z,5.8
2019-04-28T16:35:05.025Z,5.5
2019-04-28T16:38:11.221Z,5.3
2019-04-28T16:44:23.681Z,4.3
2019-04-28T16:47:29.920Z,3.8
2019-04-28T16:50:36.186Z,3.2
2019-04-28T16:56:49.027Z,2.2
2019-04-28T16:59:55.295Z,1.8
2019-04-28T17:03:01.422Z,1.4
2019-04-28T17:06:07.678Z,1.2
2019-04-28T17:09:13.996Z,0.9
2019-04-28T17:12:20.262Z,0.8
2019-04-28T17:15:26.429Z,0.5
2019-04-28T17:18:32.694Z,0.4
2019-04-28T17:21:38.831Z,0.3
2019-04-28T17:24:45.021Z,0.2
2019-04-28T17:30:57.457Z,0.1
2019-04-28T17:34:03.619Z,0
2019-04-28T17:37:09.886Z,0
2019-04-28T17:43:22.239Z,0
2019-04-28T17:46:28.489Z,0
2019-04-28T17:49:34.756Z,0
2019-04-28T17:52:40.886Z,0
2019-04-28T17:55:47.079Z,0
2019-04-28T17:58:53.210Z,0
2019-04-28T18:05:05.683Z,0
2019-04-28T18:08:23.975Z,0
2019-04-28T18:11:30.157Z,0
2019-04-28T18:14:36.353Z,0
2019-04-28T18:17:42.625Z,0
2019-04-28T18:20:48.888Z,0
2019-04-28T18:27:01.216Z,0
2019-04-28T18:30:07.351Z,0
2019-04-28T18:33:13.547Z,0
2019-04-28T18:39:26.009Z,0
2019-04-28T18:42:34.906Z,0
2019-04-28T18:45:41.091Z,0
2019-04-28T18:48:47.252Z,0
2019-04-28T18:51:53.500Z,0
2019-04-28T18:54:59.823Z,0
2019-04-28T19:01:12.228Z,0
2019-04-28T19:04:18.374Z,0
2019-04-28T19:07:24.515Z,0
2019-04-28T19:13:37.073Z,0
2019-04-28T19:16:43.345Z,0
2019-04-28T19:19:49.462Z,0
2019-04-28T19:22:55.663Z,0
2019-04-28T19:26:01.928Z,0
2019-04-28T19:29:08.063Z,0
2019-04-28T19:35:20.603Z,0
2019-04-28T19:38:26.891Z,0
2019-04-28T19:41:33.159Z,0
2019-04-28T19:47:45.605Z,0
2019-04-28T19:50:51.871Z,0
2019-04-28T19:53:58.129Z,0
2019-04-28T19:57:04.264Z,0
2019-04-28T20:00:10.572Z,0
2019-04-28T20:03:16.729Z,0
2019-04-28T20:09:29.163Z,0
2019-04-28T20:12:35.282Z,0
2019-04-28T20:15:41.601Z,0
2019-04-28T20:21:57.093Z,0
2019-04-28T20:25:03.354Z,0
2019-04-28T20:28:09.483Z,0
2019-04-28T20:31:15.692Z,0
2019-04-28T20:34:21.816Z,0
2019-04-28T20:37:28.130Z,0
2019-04-28T20:43:40.564Z,0
2019-04-28T20:46:46.722Z,0
2019-04-28T20:49:52.859Z,0
2019-04-28T20:52:59.039Z,0
2019-04-28T20:56:05.307Z,0
2019-04-28T20:59:11.445Z,0
2019-04-28T21:02:17.636Z,0
2019-04-28T21:08:30.150Z,0
2019-04-28T21:11:36.333Z,0
2019-04-28T21:17:48.793Z,0
2019-04-28T21:20:55.086Z,0
2019-04-28T21:24:01.297Z,0
2019-04-28T21:27:07.589Z,0
2019-04-28T21:30:13.731Z,0
2019-04-28T21:33:19.861Z,0
2019-04-28T21:36:26.062Z,0
2019-04-28T21:42:38.600Z,0
2019-04-28T21:45:44.771Z,0
2019-04-28T21:51:57.247Z,0
2019-04-28T21:55:03.460Z,0
2019-04-28T21:58:09.741Z,0
2019-04-28T22:01:15.866Z,0
2019-04-28T22:04:22.055Z,0
2019-04-28T22:07:28.220Z,0
2019-04-28T22:10:34.498Z,0
2019-04-28T22:13:40.660Z,0
2019-04-28T22:16:49.491Z,0
2019-04-28T22:19:55.606Z,0
2019-04-28T22:26:08.082Z,0
2019-04-28T22:29:14.199Z,0
2019-04-28T22:32:20.338Z,0
2019-04-28T22:35:26.564Z,0
2019-04-28T22:38:32.731Z,0
2019-04-28T22:41:38.950Z,0
2019-04-28T22:44:45.172Z,0
2019-04-28T22:47:51.428Z,0
2019-04-28T22:50:57.592Z,0
2019-04-28T22:54:03.772Z,0
2019-04-28T23:03:22.355Z,0
2019-04-28T23:06:28.634Z,0
2019-04-28T23:09:34.759Z,0
2019-04-28T23:12:40.967Z,0
2019-04-28T23:15:47.097Z,0
2019-04-28T23:18:53.282Z,0
2019-04-28T23:22:02.001Z,0
2019-04-28T23:25:08.129Z,0
2019-04-28T23:28:14.336Z,0
2019-04-28T23:37:32.963Z,0
2019-04-28T23:40:39.222Z,0
2019-04-28T23:43:45.366Z,0
2019-04-28T23:46:51.496Z,0
2019-04-28T23:49:57.749Z,0
2019-04-28T23:53:03.974Z,0
2019-04-28T23:56:10.223Z,0
2019-04-28T23:59:16.487Z,0
